createdAt,value
2023-03-24T00:00:31.680Z,1.40
2023-03-24T00:03:04.425Z,1.50
2023-03-24T00:05:34.668Z,1.40
2023-03-24T00:08:05.095Z,1.20
2023-03-24T00:10:36.954Z,1.50
2023-03-24T00:29:59.595Z,1.87
2023-03-24T00:32:30.602Z,1.73
2023-03-24T00:35:00.632Z,1.37
2023-03-24T00:37:30.693Z,1.53
2023-03-24T00:40:01.127Z,1.63
2023-03-24T00:42:31.372Z,1.23
2023-03-24T00:45:04.042Z,1.60
2023-03-24T00:47:37.100Z,1.90
2023-03-24T00:50:07.597Z,1.70
2023-03-24T00:52:44.339Z,1.50
2023-03-24T00:55:16.797Z,1.57
2023-03-24T00:57:50.768Z,1.40
2023-03-24T01:00:26.346Z,1.43
2023-03-24T01:02:58.690Z,1.43
2023-03-24T01:05:30.757Z,1.37
2023-03-24T01:08:03.435Z,1.40
2023-03-24T01:10:35.787Z,1.57
2023-03-24T01:13:05.959Z,1.50
2023-03-24T01:15:39.435Z,1.47
2023-03-24T01:18:09.959Z,1.50
2023-03-24T01:20:40.908Z,1.63
2023-03-24T01:23:11.562Z,1.60
2023-03-24T01:25:42.788Z,1.40
2023-03-24T01:28:12.743Z,1.20
2023-03-24T01:30:45.983Z,1.63
2023-03-24T01:33:16.617Z,1.90
2023-03-24T01:35:46.933Z,1.60
2023-03-24T01:38:18.273Z,1.53
2023-03-24T02:58:09.022Z,2.43
2023-03-24T03:00:45.255Z,2.67
2023-03-24T03:03:19.314Z,2.40
2023-03-24T03:05:54.214Z,2.30
2023-03-24T03:08:27.029Z,2.23
2023-03-24T03:11:00.255Z,2.83
2023-03-24T03:13:37.379Z,3.00
2023-03-24T03:16:12.393Z,2.50
2023-03-24T03:18:50.230Z,2.47
2023-03-24T03:21:24.489Z,2.47
2023-03-24T03:23:58.214Z,2.40
2023-03-24T03:26:32.955Z,2.43
2023-03-24T03:29:11.776Z,2.50
2023-03-24T03:31:45.726Z,2.40
2023-03-24T03:34:24.052Z,2.47
2023-03-24T03:37:00.842Z,2.70
2023-03-24T03:39:33.582Z,2.60
2023-03-24T03:42:03.777Z,2.70
2023-03-24T03:44:37.323Z,2.40
2023-03-24T03:47:07.456Z,2.40
2023-03-24T03:49:37.391Z,2.13
2023-03-24T03:52:08.351Z,2.40
2023-03-24T03:54:40.616Z,2.40
2023-03-24T03:57:10.963Z,2.50
2023-03-24T03:59:43.753Z,2.43
2023-03-24T04:02:30.709Z,2.20
2023-03-24T04:05:29.602Z,2.00
2023-03-24T04:08:34.458Z,2.10
2023-03-24T04:11:27.952Z,2.07
2023-03-24T04:14:06.949Z,2.07
2023-03-24T04:16:50.253Z,2.37
2023-03-24T04:19:37.025Z,1.93
2023-03-24T04:22:25.240Z,1.70
2023-03-24T04:25:00.388Z,1.50
2023-03-24T04:27:38.658Z,1.60
2023-03-24T04:30:17.576Z,1.67
2023-03-24T04:32:55.268Z,1.20
2023-03-24T04:35:34.454Z,1.37
2023-03-24T04:38:08.999Z,1.73
2023-03-24T04:40:42.291Z,1.50
2023-03-24T04:43:17.649Z,1.83
2023-03-24T04:45:50.429Z,1.80
2023-03-24T04:48:23.450Z,1.60
2023-03-24T04:50:57.882Z,1.73
2023-03-24T04:53:27.907Z,1.90
2023-03-24T04:56:06.768Z,1.90
2023-03-24T04:58:36.964Z,1.60
2023-03-24T05:01:09.273Z,1.53
2023-03-24T05:03:42.353Z,1.40
2023-03-24T05:06:13.418Z,1.07
2023-03-24T05:08:43.481Z,0.90
2023-03-24T05:11:13.317Z,1.10
2023-03-24T05:13:44.658Z,1.37
2023-03-24T05:16:14.599Z,1.33
2023-03-24T05:18:47.190Z,1.30
2023-03-24T05:21:17.067Z,1.30
2023-03-24T05:23:46.893Z,1.00
2023-03-24T05:26:16.862Z,1.50
2023-03-24T05:28:46.903Z,1.90
2023-03-24T05:31:16.856Z,2.30
2023-03-24T05:33:49.450Z,2.80
2023-03-24T05:36:19.711Z,2.27
2023-03-24T05:38:49.599Z,2.40
2023-03-24T05:41:19.568Z,1.80
2023-03-24T05:43:49.415Z,2.00
2023-03-24T05:46:19.340Z,2.50
2023-03-24T05:48:51.951Z,2.37
2023-03-24T05:51:21.770Z,2.63
2023-03-24T05:53:52.513Z,2.30
2023-03-24T05:56:22.354Z,2.70
2023-03-24T05:58:52.681Z,2.07
2023-03-24T06:01:24.946Z,1.40
2023-03-24T06:03:57.676Z,1.67
2023-03-24T06:06:28.916Z,1.60
2023-03-24T06:08:58.821Z,1.30
2023-03-24T06:11:28.726Z,1.50
2023-03-24T06:14:00.640Z,1.63
2023-03-24T06:16:34.143Z,1.40
2023-03-24T06:19:06.955Z,1.50
2023-03-24T06:21:37.280Z,1.37
2023-03-24T06:24:07.745Z,1.43
2023-03-24T06:26:37.626Z,1.50
2023-03-24T06:29:07.473Z,1.60
2023-03-24T06:31:37.663Z,1.40
2023-03-24T06:34:10.229Z,1.77
2023-03-24T06:36:40.882Z,1.13
2023-03-24T06:39:10.932Z,1.63
2023-03-24T06:41:40.833Z,1.57
2023-03-24T06:44:10.956Z,1.73
2023-03-24T06:46:40.875Z,1.17
2023-03-24T06:49:13.428Z,1.13
2023-03-24T06:51:43.286Z,1.03
2023-03-24T06:54:13.233Z,1.63
2023-03-24T06:56:43.096Z,1.40
2023-03-24T06:59:13.359Z,1.63
2023-03-24T07:01:43.384Z,1.50
2023-03-24T07:04:15.905Z,1.47
2023-03-24T07:07:00.888Z,2.03
2023-03-24T07:09:35.661Z,1.83
2023-03-24T07:12:05.750Z,1.50
2023-03-24T07:14:35.857Z,1.87
2023-03-24T07:17:05.814Z,1.50
2023-03-24T07:19:38.286Z,1.47
2023-03-24T07:22:08.532Z,1.57
2023-03-24T07:24:38.531Z,1.20
2023-03-24T07:27:09.375Z,1.47
2023-03-24T07:29:39.306Z,1.40
2023-03-24T07:32:09.882Z,1.30
2023-03-24T07:34:44.036Z,1.20
2023-03-24T07:37:13.978Z,1.30
2023-03-24T07:39:43.938Z,1.70
2023-03-24T07:42:13.798Z,1.70
2023-03-24T07:44:44.010Z,1.67
2023-03-24T07:47:14.278Z,1.70
2023-03-24T07:49:47.067Z,1.57
2023-03-24T07:52:17.082Z,1.43
2023-03-24T07:54:46.954Z,1.73
2023-03-24T07:57:17.014Z,1.60
2023-03-24T07:59:46.979Z,1.70
2023-03-24T08:02:20.664Z,1.60
2023-03-24T08:04:54.009Z,1.67
2023-03-24T08:07:25.009Z,1.70
2023-03-24T08:09:54.866Z,1.43
2023-03-24T08:12:24.815Z,1.33
2023-03-24T08:14:57.573Z,2.10
2023-03-24T08:17:27.718Z,1.30
2023-03-24T08:20:01.592Z,2.00
2023-03-24T08:22:32.360Z,1.90
2023-03-24T08:25:02.276Z,1.40
2023-03-24T08:27:32.130Z,1.30
2023-03-24T08:30:01.954Z,2.03
2023-03-24T08:32:32.036Z,2.00
2023-03-24T08:35:05.343Z,1.77
2023-03-24T08:37:35.649Z,1.87
2023-03-24T08:40:12.339Z,1.87
2023-03-24T08:42:42.833Z,2.27
2023-03-24T08:45:15.381Z,2.37
2023-03-24T08:47:45.363Z,2.10
2023-03-24T08:50:18.136Z,1.93
2023-03-24T08:52:48.870Z,1.60
2023-03-24T08:55:19.726Z,2.13
2023-03-24T08:57:50.107Z,2.20
2023-03-24T09:00:22.909Z,1.90
2023-03-24T09:02:54.832Z,2.30
2023-03-24T09:05:43.522Z,2.53
2023-03-24T09:08:15.446Z,2.30
2023-03-24T09:10:48.779Z,1.83
2023-03-24T09:13:19.080Z,1.97
2023-03-24T09:15:50.862Z,2.27
2023-03-24T09:18:21.883Z,1.73
2023-03-24T09:20:54.890Z,1.93
2023-03-24T09:23:25.945Z,1.80
2023-03-24T09:25:56.826Z,1.80
2023-03-24T09:28:28.062Z,1.90
2023-03-24T09:31:01.049Z,2.23
2023-03-24T09:33:34.997Z,1.93
2023-03-24T09:36:08.644Z,1.93
2023-03-24T09:38:38.808Z,1.40
2023-03-24T09:41:20.409Z,1.50
2023-03-24T09:43:55.659Z,1.73
2023-03-24T09:46:31.837Z,1.50
2023-03-24T09:49:02.521Z,1.70
2023-03-24T09:51:39.780Z,1.30
2023-03-24T09:54:17.957Z,1.20
2023-03-24T09:56:51.737Z,1.97
2023-03-24T09:59:24.688Z,1.60
2023-03-24T10:02:07.042Z,1.37
2023-03-24T10:04:37.149Z,1.60
2023-03-24T10:07:16.655Z,1.60
2023-03-24T10:09:50.497Z,1.80
2023-03-24T10:12:31.450Z,1.97
2023-03-24T10:15:24.342Z,1.93
2023-03-24T10:18:18.106Z,2.00
2023-03-24T10:20:54.947Z,1.47
2023-03-24T10:23:37.520Z,1.70
2023-03-24T10:26:19.004Z,1.40
2023-03-24T10:28:54.739Z,1.33
2023-03-24T10:31:32.085Z,1.53
2023-03-24T10:34:03.226Z,1.80
2023-03-24T10:36:33.917Z,1.60
2023-03-24T10:39:18.601Z,2.40
2023-03-24T10:41:52.556Z,1.70
2023-03-24T10:44:23.526Z,1.57
2023-03-24T10:46:57.437Z,1.60
2023-03-24T10:49:27.607Z,1.70
2023-03-24T10:52:04.433Z,1.00
2023-03-24T10:54:37.165Z,1.40
2023-03-24T10:57:18.332Z,1.83
2023-03-24T10:59:57.175Z,1.57
2023-03-24T11:02:29.206Z,1.73
2023-03-24T11:05:02.610Z,1.80
2023-03-24T11:07:39.055Z,1.90
2023-03-24T11:10:19.271Z,1.53
2023-03-24T11:13:05.257Z,1.77
2023-03-24T11:15:37.484Z,1.50
2023-03-24T11:18:17.363Z,1.53
2023-03-24T11:20:48.922Z,1.70
2023-03-24T11:23:23.042Z,1.50
2023-03-24T11:26:07.064Z,1.57
2023-03-24T11:28:41.644Z,1.57
2023-03-24T11:31:19.398Z,1.13
2023-03-24T11:33:57.017Z,1.50
2023-03-24T11:36:47.291Z,1.70
2023-03-24T11:39:24.228Z,1.73
2023-03-24T11:42:05.376Z,1.30
2023-03-24T11:44:46.684Z,1.70
2023-03-24T11:47:24.577Z,1.67
2023-03-24T11:50:03.985Z,1.40
2023-03-24T11:52:39.789Z,1.50
2023-03-24T11:55:18.345Z,1.67
2023-03-24T11:57:59.566Z,1.50
2023-03-24T12:00:35.128Z,2.03
2023-03-24T12:03:40.449Z,1.90
2023-03-24T12:06:28.502Z,1.10
2023-03-24T12:09:11.717Z,1.87
2023-03-24T12:11:56.573Z,1.90
2023-03-24T12:14:41.251Z,1.30
2023-03-24T12:17:17.010Z,1.43
2023-03-24T12:20:16.229Z,1.30
2023-03-24T12:22:58.097Z,1.77
2023-03-24T12:25:39.622Z,1.63
2023-03-24T12:28:32.633Z,1.67
2023-03-24T12:31:17.467Z,1.80
2023-03-24T12:33:56.377Z,1.63
2023-03-24T12:36:39.331Z,1.80
2023-03-24T12:39:13.722Z,1.53
2023-03-24T12:41:57.339Z,2.10
2023-03-24T12:44:43.282Z,1.77
2023-03-24T12:47:28.185Z,2.60
2023-03-24T12:50:21.054Z,1.90
2023-03-24T12:53:12.017Z,1.63
2023-03-24T12:55:47.940Z,1.73
2023-03-24T12:58:25.616Z,2.15
2023-03-24T13:01:04.935Z,1.80
2023-03-24T13:03:42.953Z,1.93
2023-03-24T13:06:23.010Z,2.37
2023-03-24T13:09:11.017Z,2.10
2023-03-24T13:11:51.091Z,1.83
2023-03-24T13:14:28.390Z,2.30
2023-03-24T13:17:06.462Z,2.53
2023-03-24T13:19:40.883Z,2.10
2023-03-24T13:22:19.018Z,1.30
2023-03-24T13:24:50.360Z,1.83
2023-03-24T13:27:26.599Z,1.93
2023-03-24T13:30:15.930Z,1.70
2023-03-24T13:32:50.724Z,1.53
2023-03-24T13:35:34.893Z,1.73
2023-03-24T13:38:10.588Z,1.60
2023-03-24T13:40:42.931Z,1.70
2023-03-24T13:43:16.606Z,1.80
2023-03-24T13:45:51.867Z,1.90
2023-03-24T13:48:30.563Z,1.43
2023-03-24T13:51:06.671Z,2.50
2023-03-24T13:53:41.516Z,1.67
2023-03-24T13:56:25.732Z,1.63
2023-03-24T13:59:25.671Z,2.50
2023-03-24T14:02:20.890Z,1.60
2023-03-24T14:04:52.382Z,1.80
2023-03-24T14:07:50.648Z,1.53
2023-03-24T14:10:46.574Z,1.00
2023-03-24T14:13:36.051Z,1.10
2023-03-24T14:16:38.636Z,1.00
2023-03-24T14:19:30.607Z,0.90
2023-03-24T14:22:07.324Z,0.90
2023-03-24T14:24:44.314Z,1.13
2023-03-24T14:27:36.448Z,0.83
2023-03-24T14:30:16.484Z,0.80
2023-03-24T14:32:49.252Z,0.97
2023-03-24T14:35:28.889Z,1.13
2023-03-24T14:38:01.748Z,1.27
2023-03-24T14:40:40.286Z,1.50
2023-03-24T14:43:21.446Z,1.80
2023-03-24T14:46:00.272Z,1.20
2023-03-24T14:48:40.524Z,1.63
2023-03-24T14:51:36.902Z,1.30
2023-03-24T14:54:09.879Z,1.57
2023-03-24T14:56:45.987Z,1.43
2023-03-24T14:59:29.705Z,1.50
2023-03-24T15:02:07.434Z,1.27
2023-03-24T15:04:39.642Z,1.63
2023-03-24T15:07:10.483Z,1.63
2023-03-24T15:09:41.627Z,1.30
2023-03-24T15:12:14.401Z,1.10
2023-03-24T15:14:46.641Z,1.10
2023-03-24T15:17:24.635Z,1.20
2023-03-24T15:19:55.851Z,1.40
2023-03-24T15:22:26.191Z,1.10
2023-03-24T15:24:56.365Z,1.97
2023-03-24T15:27:33.941Z,1.20
2023-03-24T15:30:05.080Z,1.40
2023-03-24T15:32:39.414Z,1.23
2023-03-24T15:35:15.768Z,1.43
2023-03-24T15:37:48.510Z,1.10
2023-03-24T15:40:34.477Z,1.33
2023-03-24T15:43:09.790Z,1.50
2023-03-24T15:45:51.161Z,1.60
2023-03-24T15:48:31.088Z,1.60
2023-03-24T15:51:03.829Z,1.60
2023-03-24T15:53:42.270Z,1.10
2023-03-24T15:56:21.107Z,1.03
2023-03-24T15:58:57.153Z,1.30
2023-03-24T16:01:36.618Z,1.40
2023-03-24T16:04:09.122Z,1.20
2023-03-24T16:06:40.082Z,1.03
2023-03-24T16:09:14.594Z,1.07
2023-03-24T16:11:44.950Z,1.43
2023-03-24T16:14:25.587Z,1.03
2023-03-24T16:16:58.216Z,1.20
2023-03-24T16:19:31.528Z,1.40
2023-03-24T16:22:02.625Z,1.97
2023-03-24T16:24:33.996Z,1.87
2023-03-24T16:27:04.100Z,1.53
2023-03-24T16:29:37.025Z,1.77
2023-03-24T16:32:10.107Z,1.00
2023-03-24T16:34:40.031Z,0.80
2023-03-24T16:37:10.852Z,0.67
2023-03-24T16:39:40.839Z,0.90
2023-03-24T16:42:13.119Z,0.80
2023-03-24T16:44:46.588Z,0.90
2023-03-24T16:47:16.736Z,0.90
2023-03-24T16:49:46.598Z,0.90
2023-03-24T16:52:17.937Z,0.83
2023-03-24T16:54:50.500Z,0.80
2023-03-24T16:57:21.845Z,0.90
2023-03-24T16:59:54.510Z,0.70
2023-03-24T17:02:27.046Z,0.50
2023-03-24T17:04:57.354Z,0.70
2023-03-24T17:07:27.789Z,0.73
2023-03-24T17:09:57.719Z,0.80
2023-03-24T17:12:27.899Z,0.70
2023-03-24T17:15:00.471Z,1.07
2023-03-24T17:17:30.462Z,1.20
2023-03-24T17:20:01.234Z,0.60
2023-03-24T17:22:32.558Z,1.10
2023-03-24T17:25:02.496Z,0.80
2023-03-24T17:27:32.433Z,0.73
2023-03-24T17:30:05.294Z,1.00
2023-03-24T17:32:36.803Z,0.80
2023-03-24T17:35:07.458Z,1.20
2023-03-24T17:37:37.455Z,0.60
2023-03-24T17:40:10.756Z,1.07
2023-03-24T17:42:43.314Z,1.13
2023-03-24T17:45:20.460Z,1.20
2023-03-24T17:47:50.430Z,1.20
2023-03-24T17:50:20.888Z,1.23
2023-03-24T17:52:51.456Z,1.03
2023-03-24T17:55:21.740Z,0.87
2023-03-24T17:57:51.914Z,0.70
2023-03-24T18:00:25.426Z,0.73
2023-03-24T18:02:56.817Z,0.70
2023-03-24T18:05:28.112Z,0.80
2023-03-24T18:07:58.109Z,0.93
2023-03-24T18:10:27.930Z,2.27
2023-03-24T18:12:57.835Z,1.87
2023-03-24T18:15:30.699Z,2.80
2023-03-24T18:18:01.017Z,2.77
2023-03-24T18:20:32.289Z,1.97
2023-03-24T18:23:02.099Z,2.00
2023-03-24T18:25:32.311Z,1.97
2023-03-24T18:28:02.773Z,1.50
2023-03-24T18:30:35.533Z,1.53
2023-03-24T18:33:05.596Z,1.53
2023-03-24T18:35:35.811Z,2.10
2023-03-24T18:38:05.908Z,1.93
2023-03-24T18:40:38.570Z,1.43
2023-03-24T18:43:08.703Z,1.70
2023-03-24T18:45:41.320Z,1.00
2023-03-24T18:48:15.612Z,1.40
2023-03-24T18:50:48.750Z,1.17
2023-03-24T18:53:18.783Z,1.43
2023-03-24T18:55:50.443Z,1.50
2023-03-24T18:58:21.521Z,1.10
2023-03-24T19:00:55.670Z,1.00
2023-03-24T19:03:27.323Z,1.47
2023-03-24T19:05:59.224Z,1.40
2023-03-24T19:08:29.093Z,1.47
2023-03-24T19:11:00.305Z,1.23
2023-03-24T19:13:30.294Z,1.20
2023-03-24T19:16:02.886Z,1.10
2023-03-24T19:18:32.994Z,2.10
2023-03-24T19:21:02.953Z,1.67
2023-03-24T19:23:33.670Z,1.30
2023-03-24T19:26:03.791Z,1.57
2023-03-24T19:28:37.422Z,1.63
2023-03-24T19:31:13.814Z,2.13
2023-03-24T19:33:44.422Z,1.43
2023-03-24T19:36:15.841Z,1.87
2023-03-24T19:38:46.259Z,1.50
2023-03-24T19:41:17.785Z,1.70
2023-03-24T19:43:47.754Z,0.80
2023-03-24T19:46:21.273Z,1.47
2023-03-24T19:48:51.319Z,1.43
2023-03-24T19:51:21.849Z,1.60
2023-03-24T19:53:51.720Z,1.43
2023-03-24T19:56:22.287Z,1.33
2023-03-24T19:58:52.538Z,1.70
2023-03-24T20:01:25.283Z,1.27
2023-03-24T20:03:55.463Z,1.80
2023-03-24T20:06:25.671Z,1.47
2023-03-24T20:08:58.104Z,2.37
2023-03-24T20:11:27.962Z,1.70
2023-03-24T20:13:57.973Z,1.60
2023-03-24T20:16:30.420Z,1.80
2023-03-24T20:19:00.286Z,1.30
2023-03-24T20:21:30.535Z,1.77
2023-03-24T20:24:00.786Z,1.60
2023-03-24T20:26:31.357Z,1.83
2023-03-24T20:29:01.281Z,2.00
2023-03-24T20:31:34.166Z,1.60
2023-03-24T20:34:04.133Z,1.63
2023-03-24T20:36:34.162Z,1.60
2023-03-24T20:39:05.924Z,1.30
2023-03-24T20:41:36.506Z,1.30
2023-03-24T20:44:06.557Z,1.00
2023-03-24T20:46:40.209Z,0.93
2023-03-24T20:49:14.399Z,1.00
2023-03-24T20:51:44.275Z,0.77
2023-03-24T20:54:14.859Z,1.10
2023-03-24T20:56:44.921Z,1.83
2023-03-24T20:59:14.867Z,1.53
2023-03-24T21:01:49.030Z,1.23
2023-03-24T21:04:20.525Z,1.40
2023-03-24T21:06:50.406Z,1.10
2023-03-24T21:09:22.496Z,1.00
2023-03-24T21:11:52.444Z,0.63
2023-03-24T21:14:22.680Z,0.90
2023-03-24T21:16:55.303Z,1.00
2023-03-24T21:19:26.186Z,0.90
2023-03-24T21:21:56.392Z,1.30
2023-03-24T21:24:26.673Z,1.43
2023-03-24T21:26:57.395Z,1.53
2023-03-24T21:29:27.405Z,1.40
2023-03-24T21:31:59.893Z,1.47
2023-03-24T21:34:29.737Z,1.37
2023-03-24T21:37:01.820Z,1.77
2023-03-24T21:39:33.827Z,2.10
2023-03-24T21:42:06.792Z,2.03
2023-03-24T21:44:39.911Z,1.63
2023-03-24T21:47:15.106Z,2.07
2023-03-24T21:49:49.407Z,2.13
2023-03-24T21:52:19.628Z,1.80
2023-03-24T21:54:49.527Z,1.73
2023-03-24T21:57:20.246Z,1.37
2023-03-24T21:59:50.154Z,2.33
2023-03-24T22:02:25.291Z,1.30
2023-03-24T22:04:55.197Z,1.63
2023-03-24T22:07:25.444Z,1.20
2023-03-24T22:09:55.252Z,1.70
2023-03-24T22:12:25.330Z,1.10
2023-03-24T22:14:55.344Z,1.33
2023-03-24T22:17:28.205Z,1.60
2023-03-24T22:19:58.081Z,1.50
2023-03-24T22:22:27.946Z,1.30
2023-03-24T22:24:58.084Z,1.20
2023-03-24T22:27:28.085Z,1.30
2023-03-24T22:29:57.917Z,1.10
2023-03-24T22:32:30.887Z,1.10
2023-03-24T22:35:01.844Z,0.97
2023-03-24T22:37:31.851Z,1.60
2023-03-24T22:40:01.814Z,1.00
2023-03-24T22:42:31.969Z,1.27
2023-03-24T22:45:02.136Z,1.77
2023-03-24T22:47:37.084Z,1.03
2023-03-24T22:50:09.728Z,0.70
2023-03-24T22:52:39.672Z,0.87
2023-03-24T22:55:10.521Z,0.73
2023-03-24T22:57:40.500Z,0.60
2023-03-24T23:00:12.162Z,0.60
2023-03-24T23:02:44.870Z,1.00
2023-03-24T23:05:15.507Z,1.20
2023-03-24T23:07:45.606Z,1.80
2023-03-24T23:10:16.071Z,1.83
2023-03-24T23:12:46.576Z,1.57
2023-03-24T23:15:18.036Z,1.20
2023-03-24T23:17:50.687Z,1.03
2023-03-24T23:20:21.215Z,0.60
2023-03-24T23:22:51.380Z,0.60
2023-03-24T23:25:21.926Z,1.00
2023-03-24T23:27:51.781Z,0.73
2023-03-24T23:30:21.637Z,0.93
2023-03-24T23:32:54.165Z,0.80
2023-03-24T23:35:24.090Z,0.80
2023-03-24T23:37:53.935Z,1.03
2023-03-24T23:40:24.420Z,0.97
2023-03-24T23:42:54.444Z,0.60
2023-03-24T23:45:24.327Z,0.70
2023-03-24T23:47:57.048Z,0.50
2023-03-24T23:50:28.389Z,0.83
2023-03-24T23:52:59.355Z,0.80
2023-03-24T23:55:29.959Z,0.80
2023-03-24T23:58:00.176Z,1.10
